Terminal Aerodrome Forecast
Issued by NWS Newport/Morehead City, NC

Home | Current Version | Previous Version | Text Only | Print | Product List | Glossary Off
Versions: 1 2 3 4 5 6 7 8 9 10 11 12 13 14

464
FTUS42 KMHX 072320
TAFEWN
TAF
KEWN 072320Z 0800/0824 34020G33KT 6SM RA SCT020 BKN040
      TEMPO 0800/0802 3SM RA BKN020
     FM080400 33017G25KT 6SM -RA BKN060
     FM080600 32012G20KT P6SM SCT060
     FM081100 30008KT P6SM SKC=

USA.gov is the U.S. government's official web portal to all federal, state and local government web resources and services.